Cabo Espichel — CSZF — position and weather

sailwx.info

Track history (hours):
 
Tides and Currents Weather Stations Pressure Air Temp Water Temp Dewpoint Dewpoint Depression Visibility Wind Speed Wind Dir Waves Ship Positions

Cabo Espichel

Last reported at 2018-Jun-18 05:38 UTC. Time now 2018-Jun-18 13:23 UTC.
Position N 38°30' W 008°50'.

Type: Tug. MMSI: 263601850.

Date/timePositionNaut miles runAvg speedWind from/ knotsBaromVisibWave heightAir tempDewpointWater temp
2018-Jun-18 05:38N 38°30' W 008°50'1 8.1
2018-Jun-18 05:28N 38°29' W 008°49'1 2.7
2018-Jun-18 04:55N 38°28' W 008°47'1 1.5
2018-Jun-18 04:30N 38°28' W 008°48'3 5.4
2018-Jun-18 03:58N 38°28' W 008°51'2 0.5
2018-Jun-18 00:24N 38°30' W 008°50'0 0.0
2018-Jun-17 23:58N 38°30' W 008°50'3 0.1
2018-Jun-17 04:50N 38°31' W 008°53'0 0.0
2018-Jun-17 04:30N 38°31' W 008°53'1 2.1
2018-Jun-17 04:00N 38°31' W 008°54'3 0.1
2018-Jun-15 02:35N 38°30' W 008°50'  
Track history (hours):
 
Tides and Currents Weather Stations Pressure Air Temp Water Temp Dewpoint Dewpoint Depression Visibility Wind Speed Wind Dir Waves Ship Positions

Cabo Espichel

Last reported at 2018-Jun-18 05:38 UTC. Time now 2018-Jun-18 13:23 UTC.
Position N 38°30' W 008°50'.

Type: Tug. MMSI: 263601850.

Date/timePositionNaut miles runAvg speedWind from/ knotsBaromVisibWave heightAir tempDewpointWater temp
2018-Jun-18 05:38N 38°30' W 008°50'1 8.1
2018-Jun-18 05:28N 38°29' W 008°49'1 2.7
2018-Jun-18 04:55N 38°28' W 008°47'1 1.5
2018-Jun-18 04:30N 38°28' W 008°48'3 5.4
2018-Jun-18 03:58N 38°28' W 008°51'2 0.5
2018-Jun-18 00:24N 38°30' W 008°50'0 0.0
2018-Jun-17 23:58N 38°30' W 008°50'3 0.1
2018-Jun-17 04:50N 38°31' W 008°53'0 0.0
2018-Jun-17 04:30N 38°31' W 008°53'1 2.1
2018-Jun-17 04:00N 38°31' W 008°54'3 0.1
2018-Jun-15 02:35N 38°30' W 008°50'  

Dump ship's entire track history